Time,TemperatureF,DewpointF,PressureIn,WindDirection,WindDirectionDegrees,WindSpeedMPH,WindSpeedGustMPH,Humidity,HourlyPrecipIn,Conditions,Clouds,dailyrainin,SoftwareType,DateUTC
2013-03-28 00:01:00,30.4,23.4,30.07,NW,315,4.7,-999.0,75,-99.99,,,0.00,Acu-Link.com,2013-03-28 04:01:00,
2013-03-28 00:17:00,30.2,23.6,30.07,West,270,4.2,-999.0,76,-99.99,,,0.00,Acu-Link.com,2013-03-28 04:17:00,
2013-03-28 00:32:00,30.4,23.4,30.06,West,270,4.2,-999.0,75,-99.99,,,0.00,Acu-Link.com,2013-03-28 04:32:00,
2013-03-28 00:47:00,30.0,23.4,30.06,WNW,292,3.2,-999.0,76,-99.99,,,0.00,Acu-Link.com,2013-03-28 04:47:00,
2013-03-28 01:02:00,29.8,23.2,30.07,West,270,4.7,-999.0,76,-99.99,,,0.00,Acu-Link.com,2013-03-28 05:02:00,
2013-03-28 01:17:00,29.3,22.7,30.06,West,270,2.2,-999.0,76,-99.99,,,0.00,Acu-Link.com,2013-03-28 05:17:00,
2013-03-28 01:33:00,28.8,22.8,30.06,West,270,3.2,-999.0,78,-99.99,,,0.00,Acu-Link.com,2013-03-28 05:33:00,
2013-03-28 01:48:00,28.9,22.9,30.06,WNW,292,2.2,-999.0,78,-99.99,,,0.00,Acu-Link.com,2013-03-28 05:48:00,
2013-03-28 02:03:00,29.1,22.8,30.07,WNW,292,2.7,-999.0,77,-99.99,,,0.00,Acu-Link.com,2013-03-28 06:03:00,
2013-03-28 02:18:00,29.3,23.0,30.07,West,270,3.7,-999.0,77,-99.99,,,0.00,Acu-Link.com,2013-03-28 06:18:00,
2013-03-28 02:33:00,29.3,23.0,30.07,SW,225,4.2,-999.0,77,-99.99,,,0.00,Acu-Link.com,2013-03-28 06:33:00,
2013-03-28 02:48:00,29.3,23.0,30.07,West,270,4.2,-999.0,77,-99.99,,,0.00,Acu-Link.com,2013-03-28 06:48:00,
2013-03-28 03:03:00,29.3,23.3,30.07,West,270,2.7,-999.0,78,-99.99,,,0.00,Acu-Link.com,2013-03-28 07:03:00,
2013-03-28 03:19:00,29.3,23.3,30.07,West,270,5.8,-999.0,78,-99.99,,,0.00,Acu-Link.com,2013-03-28 07:19:00,
2013-03-28 03:34:00,29.5,23.8,30.07,NW,315,5.3,-999.0,79,-99.99,,,0.00,Acu-Link.com,2013-03-28 07:34:00,
2013-03-28 03:49:00,29.3,23.9,30.07,WNW,292,5.3,-999.0,80,-99.99,,,0.00,Acu-Link.com,2013-03-28 07:49:00,
2013-03-28 04:05:00,29.3,23.9,30.06,NNW,337,5.3,-999.0,80,-99.99,,,0.00,Acu-Link.com,2013-03-28 08:05:00,
2013-03-28 04:20:00,29.3,23.9,30.06,West,270,5.3,-999.0,80,-99.99,,,0.00,Acu-Link.com,2013-03-28 08:20:00,
2013-03-28 04:35:00,29.5,24.4,30.06,West,270,5.8,-999.0,81,-99.99,,,0.00,Acu-Link.com,2013-03-28 08:35:00,
2013-03-28 04:50:00,29.5,24.4,30.06,WNW,292,7.8,-999.0,81,-99.99,,,0.00,Acu-Link.com,2013-03-28 08:50:00,
2013-03-28 05:05:00,29.7,24.6,30.07,West,270,4.2,-999.0,81,-99.99,,,0.00,Acu-Link.com,2013-03-28 09:05:00,
2013-03-28 05:20:00,29.3,24.2,30.06,WNW,292,4.2,-999.0,81,-99.99,,,0.00,Acu-Link.com,2013-03-28 09:20:00,
2013-03-28 05:36:00,29.1,24.0,30.06,West,270,6.8,-999.0,81,-99.99,,,0.00,Acu-Link.com,2013-03-28 09:36:00,
2013-03-28 05:51:00,28.9,23.8,30.06,WNW,292,5.3,-999.0,81,-99.99,,,0.00,Acu-Link.com,2013-03-28 09:51:00,
2013-03-28 06:07:00,28.8,23.7,30.07,WNW,292,6.8,-999.0,81,-99.99,,,0.00,Acu-Link.com,2013-03-28 10:07:00,
2013-03-28 06:22:00,28.6,23.5,30.06,NW,315,5.8,-999.0,81,-99.99,,,0.00,Acu-Link.com,2013-03-28 10:22:00,
2013-03-28 06:37:00,28.0,22.9,30.07,West,270,4.7,-999.0,81,-99.99,,,0.00,Acu-Link.com,2013-03-28 10:37:00,
2013-03-28 06:52:00,28.2,23.1,30.07,West,270,3.2,-999.0,81,-99.99,,,0.00,Acu-Link.com,2013-03-28 10:52:00,
2013-03-28 07:07:00,28.0,23.2,30.08,WNW,292,5.3,-999.0,82,-99.99,,,0.00,Acu-Link.com,2013-03-28 11:07:00,
2013-03-28 07:38:00,27.1,22.6,30.09,WNW,292,3.7,-999.0,83,-99.99,,,0.00,Acu-Link.com,2013-03-28 11:38:00,
2013-03-28 07:53:00,27.3,22.8,30.09,West,270,2.7,-999.0,83,-99.99,,,0.00,Acu-Link.com,2013-03-28 11:53:00,
2013-03-28 08:08:00,28.0,23.2,30.09,West,270,3.7,-999.0,82,-99.99,,,0.00,Acu-Link.com,2013-03-28 12:08:00,
2013-03-28 08:24:00,29.1,23.7,30.09,West,270,4.7,-999.0,80,-99.99,,,0.00,Acu-Link.com,2013-03-28 12:24:00,
2013-03-28 08:39:00,30.2,24.8,30.09,NW,315,5.3,-999.0,80,-99.99,,,0.00,Acu-Link.com,2013-03-28 12:39:00,
2013-03-28 08:54:00,30.9,24.9,30.10,WNW,292,3.7,-999.0,78,-99.99,,,0.00,Acu-Link.com,2013-03-28 12:54:00,
2013-03-28 09:09:00,32.2,25.8,30.10,WNW,292,5.3,-999.0,77,-99.99,,,0.00,Acu-Link.com,2013-03-28 13:09:00,
2013-03-28 09:25:00,33.3,25.9,30.10,NW,315,6.3,-999.0,74,-99.99,,,0.00,Acu-Link.com,2013-03-28 13:25:00,
2013-03-28 09:40:00,34.0,26.6,30.11,NW,315,5.3,-999.0,74,-99.99,,,0.00,Acu-Link.com,2013-03-28 13:40:00,
2013-03-28 09:55:00,34.7,26.6,30.11,NW,315,6.3,-999.0,72,-99.99,,,0.00,Acu-Link.com,2013-03-28 13:55:00,
2013-03-28 10:10:00,36.1,26.9,30.11,NW,315,4.7,-999.0,69,-99.99,,,0.00,Acu-Link.com,2013-03-28 14:10:00,
2013-03-28 10:25:00,37.4,27.5,30.11,NW,315,6.3,-999.0,67,-99.99,,,0.00,Acu-Link.com,2013-03-28 14:25:00,
2013-03-28 10:40:00,38.3,26.8,30.12,NNW,337,5.8,-999.0,63,-99.99,,,0.00,Acu-Link.com,2013-03-28 14:40:00,
2013-03-28 10:55:00,39.9,27.2,30.11,NW,315,6.3,-999.0,60,-99.99,,,0.00,Acu-Link.com,2013-03-28 14:55:00,
2013-03-28 11:26:00,40.5,26.5,30.12,NNW,337,7.3,-999.0,57,-99.99,,,0.00,Acu-Link.com,2013-03-28 15:26:00,
2013-03-28 11:41:00,40.5,26.5,30.12,NW,315,11.4,-999.0,57,-99.99,,,0.00,Acu-Link.com,2013-03-28 15:41:00,
2013-03-28 11:56:00,41.4,25.1,30.12,NW,315,9.4,-999.0,52,-99.99,,,0.00,Acu-Link.com,2013-03-28 15:56:00,
2013-03-28 12:11:00,41.9,25.1,30.12,NW,315,7.3,-999.0,51,-99.99,,,0.00,Acu-Link.com,2013-03-28 16:11:00,
2013-03-28 12:27:00,41.2,24.0,30.11,NW,315,5.3,-999.0,50,-99.99,,,0.00,Acu-Link.com,2013-03-28 16:27:00,
2013-03-28 12:42:00,41.5,24.7,30.12,NNE,22,7.8,-999.0,51,-99.99,,,0.00,Acu-Link.com,2013-03-28 16:42:00,
2013-03-28 12:57:00,43.5,25.6,30.12,NW,315,7.8,-999.0,49,-99.99,,,0.00,Acu-Link.com,2013-03-28 16:57:00,
2013-03-28 13:12:00,44.1,26.7,30.12,WNW,292,8.3,-999.0,50,-99.99,,,0.00,Acu-Link.com,2013-03-28 17:12:00,
2013-03-28 13:27:00,44.4,26.9,30.12,West,270,4.7,-999.0,50,-99.99,,,0.00,Acu-Link.com,2013-03-28 17:27:00,
2013-03-28 13:42:00,45.0,27.0,30.12,WNW,292,7.8,-999.0,49,-99.99,,,0.00,Acu-Link.com,2013-03-28 17:42:00,
2013-03-28 13:57:00,43.5,26.1,30.11,SSW,202,5.8,-999.0,50,-99.99,,,0.00,Acu-Link.com,2013-03-28 17:57:00,
2013-03-28 14:12:00,45.0,26.5,30.10,WSW,247,7.3,-999.0,48,-99.99,,,0.00,Acu-Link.com,2013-03-28 18:12:00,
2013-03-28 14:27:00,46.2,27.6,30.10,West,270,11.4,-999.0,48,-99.99,,,0.00,Acu-Link.com,2013-03-28 18:27:00,
2013-03-28 14:42:00,45.0,26.0,30.10,WSW,247,3.2,-999.0,47,-99.99,,,0.00,Acu-Link.com,2013-03-28 18:42:00,
2013-03-28 14:58:00,46.2,28.1,30.10,SSE,157,9.9,-999.0,49,-99.99,,,0.00,Acu-Link.com,2013-03-28 18:58:00,
2013-03-28 15:13:00,45.7,28.6,30.09,NNW,337,9.4,-999.0,51,-99.99,,,0.00,Acu-Link.com,2013-03-28 19:13:00,
2013-03-28 15:28:00,47.7,29.0,30.09,West,270,10.9,-999.0,48,-99.99,,,0.00,Acu-Link.com,2013-03-28 19:28:00,
2013-03-28 15:43:00,45.1,29.0,30.08,NNE,22,2.7,-999.0,53,-99.99,,,0.00,Acu-Link.com,2013-03-28 19:43:00,
2013-03-28 15:59:00,46.6,28.5,30.07,West,270,8.3,-999.0,49,-99.99,,,0.00,Acu-Link.com,2013-03-28 19:59:00,
2013-03-28 16:14:00,45.0,27.5,30.06,NNE,22,2.2,-999.0,50,-99.99,,,0.00,Acu-Link.com,2013-03-28 20:14:00,
2013-03-28 16:29:00,46.2,28.1,30.07,WNW,292,3.7,-999.0,49,-99.99,,,0.00,Acu-Link.com,2013-03-28 20:29:00,
2013-03-28 16:44:00,47.1,29.9,30.06,WNW,292,7.3,-999.0,51,-99.99,,,0.00,Acu-Link.com,2013-03-28 20:44:00,
2013-03-28 16:59:00,47.3,29.1,30.06,SSW,202,4.2,-999.0,49,-99.99,,,0.00,Acu-Link.com,2013-03-28 20:59:00,
2013-03-28 17:14:00,47.1,28.9,30.06,West,270,3.7,-999.0,49,-99.99,,,0.00,Acu-Link.com,2013-03-28 21:14:00,
2013-03-28 17:30:00,46.8,28.7,30.06,WNW,292,6.8,-999.0,49,-99.99,,,0.00,Acu-Link.com,2013-03-28 21:30:00,
2013-03-28 17:45:00,46.8,30.1,30.05,NNW,337,3.2,-999.0,52,-99.99,,,0.00,Acu-Link.com,2013-03-28 21:45:00,
2013-03-28 18:00:00,45.9,29.3,30.05,West,270,7.3,-999.0,52,-99.99,,,0.00,Acu-Link.com,2013-03-28 22:00:00,
2013-03-28 18:15:00,46.9,28.8,30.05,West,270,6.8,-999.0,49,-99.99,,,0.00,Acu-Link.com,2013-03-28 22:15:00,
2013-03-28 18:31:00,47.1,28.9,30.05,SE,135,1.1,-999.0,49,-99.99,,,0.00,Acu-Link.com,2013-03-28 22:31:00,
2013-03-28 19:01:00,46.6,28.0,30.05,WNW,292,7.3,-999.0,48,-99.99,,,0.00,Acu-Link.com,2013-03-28 23:01:00,
2013-03-28 19:16:00,45.9,28.3,30.05,ESE,112,3.2,-999.0,50,-99.99,,,0.00,Acu-Link.com,2013-03-28 23:16:00,
2013-03-28 19:32:00,45.1,28.5,30.05,West,270,4.7,-999.0,52,-99.99,,,0.00,Acu-Link.com,2013-03-28 23:32:00,
2013-03-28 19:47:00,44.1,28.5,30.05,WNW,292,4.7,-999.0,54,-99.99,,,0.00,Acu-Link.com,2013-03-28 23:47:00,
2013-03-28 20:02:00,42.8,29.5,30.05,WNW,292,2.7,-999.0,59,-99.99,,,0.00,Acu-Link.com,2013-03-29 00:02:00,
2013-03-28 20:17:00,41.4,29.8,30.06,NNW,337,2.7,-999.0,63,-99.99,,,0.00,Acu-Link.com,2013-03-29 00:17:00,
2013-03-28 20:33:00,40.3,29.5,30.05,NNW,337,0.0,-999.0,65,-99.99,,,0.00,Acu-Link.com,2013-03-29 00:33:00,
2013-03-28 20:48:00,39.0,29.0,30.06,North,0,0.0,-999.0,67,-99.99,,,0.00,Acu-Link.com,2013-03-29 00:48:00,
2013-03-28 21:03:00,38.5,28.9,30.06,North,0,2.2,-999.0,68,-99.99,,,0.00,Acu-Link.com,2013-03-29 01:03:00,
2013-03-28 21:18:00,37.9,28.7,30.06,NW,315,2.2,-999.0,69,-99.99,,,0.00,Acu-Link.com,2013-03-29 01:18:00,
2013-03-28 21:34:00,37.4,29.9,30.07,West,270,0.0,-999.0,74,-99.99,,,0.00,Acu-Link.com,2013-03-29 01:34:00,
2013-03-28 21:49:00,36.5,29.7,30.07,NNW,337,1.7,-999.0,76,-99.99,,,0.00,Acu-Link.com,2013-03-29 01:49:00,
2013-03-28 22:05:00,36.1,28.6,30.06,NNW,337,2.2,-999.0,74,-99.99,,,0.00,Acu-Link.com,2013-03-29 02:05:00,
2013-03-28 22:20:00,35.2,28.4,30.07,SSW,202,1.7,-999.0,76,-99.99,,,0.00,Acu-Link.com,2013-03-29 02:20:00,
2013-03-28 22:35:00,35.2,28.4,30.07,West,270,1.1,-999.0,76,-99.99,,,0.00,Acu-Link.com,2013-03-29 02:35:00,
2013-03-28 22:51:00,34.7,27.9,30.07,West,270,0.0,-999.0,76,-99.99,,,0.00,Acu-Link.com,2013-03-29 02:51:00,
2013-03-28 23:21:00,33.3,28.1,30.07,South,180,0.0,-999.0,81,-99.99,,,0.00,Acu-Link.com,2013-03-29 03:21:00,
2013-03-28 23:36:00,32.4,27.8,30.07,SW,225,0.0,-999.0,83,-99.99,,,0.00,Acu-Link.com,2013-03-29 03:36:00,